Rechercher aéroport 
image banner adimage banner ad
image banner ad

SBSL - Marechal Cunha Machado

Situé à Sao Luis, Brazil

ICAO - SBSL, IATA - SLZ

Données fournies par Airmate  

Information générale

Coordonnées: S2°35'13" W44°14'10"
Élévation : 177 feet MSL.
Variation magnétique : -20° East
Voir autres Aéroports à Maranhão

Données opérationnelles

Accessible au public
Heure actuelle UTC:
Heure actuelle locale:
Météo
METAR: SBSL 252300Z 24001KT 9999 FEW017 SCT080 26/25 Q1009
TAF: TAF SBSL 251500Z 2518/2618 07015KT 8000 BKN017 FEW027TCU TN24/2610Z TX30/2616Z TEMPO 2518/2522 4000 TSRA BKN015 FEW025CB BECMG 2522/2524 10007KT 9999 SCT017 BECMG 2602/2604 06005KT 7000 PROB40 2606/2608 09010KT 5000 RA BKN015 FEW022TCU BECMG 2608/2610 10010KT 6000 DZ BKN012 BECMG 2611/2613 8000 NSW BKN017 BECMG 2614/2616 05015KT BKN017 FEW025TCU PROB40 2616/2618 4000 TSRA BKN015 FEW025CB RMK PHN
Voir NOTAMs / SUP AIP / TFR affectant cet aéroport [VIEW]
Fréquences de communication: [VIEW]

Pistes:

Identifiant RWYQFULongueur (ft)Largeur (ft)SurfaceLDA (ft)
0639°7825148ASP
24219°7825148
0970°4803148
27250°4803148

Coordonnées de l'aéroport

Adresse: Sao Luis Brazil

Autres services d'aviation

Clubs d'aviation (sans but lucratif)

Aero Club Maranhão

Aero Club Maranhão

Vue satellite de SBSL